sensor_id;sensor_type;location;lat;lon;timestamp;pressure;altitude;pressure_sealevel;temperature;humidity
43115;BME280;28727;50.068;14.452;2023-02-01T00:01:39;99223.84;;;4.83;66.31
43115;BME280;28727;50.068;14.452;2023-02-01T00:04:13;99230.06;;;4.82;66.14
43115;BME280;28727;50.068;14.452;2023-02-01T00:06:45;99233.88;;;4.78;66.39
43115;BME280;28727;50.068;14.452;2023-02-01T00:09:17;99234.72;;;4.79;66.64
43115;BME280;28727;50.068;14.452;2023-02-01T00:11:49;99239.69;;;4.82;66.36
43115;BME280;28727;50.068;14.452;2023-02-01T00:14:21;99246.00;;;4.79;66.56
43115;BME280;28727;50.068;14.452;2023-02-01T00:16:52;99246.28;;;4.76;66.38
43115;BME280;28727;50.068;14.452;2023-02-01T00:19:24;99252.47;;;4.75;66.26
43115;BME280;28727;50.068;14.452;2023-02-01T00:21:56;99240.47;;;4.73;66.87
43115;BME280;28727;50.068;14.452;2023-02-01T00:24:28;99245.84;;;4.71;66.77
43115;BME280;28727;50.068;14.452;2023-02-01T00:26:59;99251.06;;;4.71;66.90
43115;BME280;28727;50.068;14.452;2023-02-01T00:29:31;99239.81;;;4.71;66.94
43115;BME280;28727;50.068;14.452;2023-02-01T00:32:03;99238.28;;;4.68;67.33
43115;BME280;28727;50.068;14.452;2023-02-01T00:34:35;99247.78;;;4.69;67.44
43115;BME280;28727;50.068;14.452;2023-02-01T00:37:07;99252.31;;;4.67;67.73
43115;BME280;28727;50.068;14.452;2023-02-01T00:39:39;99240.75;;;4.70;67.89
43115;BME280;28727;50.068;14.452;2023-02-01T00:42:11;99240.88;;;4.68;67.57
43115;BME280;28727;50.068;14.452;2023-02-01T00:44:42;99242.69;;;4.68;67.84
43115;BME280;28727;50.068;14.452;2023-02-01T00:47:14;99241.72;;;4.59;68.32
43115;BME280;28727;50.068;14.452;2023-02-01T00:49:46;99247.06;;;4.58;68.80
43115;BME280;28727;50.068;14.452;2023-02-01T00:52:17;99242.91;;;4.55;68.64
43115;BME280;28727;50.068;14.452;2023-02-01T00:54:49;99242.91;;;4.55;69.39
43115;BME280;28727;50.068;14.452;2023-02-01T00:57:21;99235.34;;;4.52;69.51
43115;BME280;28727;50.068;14.452;2023-02-01T00:59:53;99235.22;;;4.53;69.56
43115;BME280;28727;50.068;14.452;2023-02-01T01:02:26;99239.88;;;4.50;69.39
43115;BME280;28727;50.068;14.452;2023-02-01T01:04:58;99240.69;;;4.50;69.76
43115;BME280;28727;50.068;14.452;2023-02-01T01:07:29;99244.16;;;4.51;70.03
43115;BME280;28727;50.068;14.452;2023-02-01T01:10:02;99255.44;;;4.51;69.96
43115;BME280;28727;50.068;14.452;2023-02-01T01:12:36;99257.78;;;4.54;69.69
43115;BME280;28727;50.068;14.452;2023-02-01T01:15:08;99258.75;;;4.53;69.96
43115;BME280;28727;50.068;14.452;2023-02-01T01:17:39;99257.63;;;4.46;69.89
43115;BME280;28727;50.068;14.452;2023-02-01T01:20:11;99248.00;;;4.47;70.27
43115;BME280;28727;50.068;14.452;2023-02-01T01:22:43;99255.00;;;4.46;70.23
43115;BME280;28727;50.068;14.452;2023-02-01T01:25:15;99253.91;;;4.49;70.46
43115;BME280;28727;50.068;14.452;2023-02-01T01:27:47;99260.25;;;4.46;70.60
43115;BME280;28727;50.068;14.452;2023-02-01T01:30:19;99253.34;;;4.45;70.71
43115;BME280;28727;50.068;14.452;2023-02-01T01:32:51;99258.72;;;4.44;70.57
43115;BME280;28727;50.068;14.452;2023-02-01T01:35:23;99255.00;;;4.46;70.13
43115;BME280;28727;50.068;14.452;2023-02-01T01:37:55;99253.66;;;4.52;69.98
43115;BME280;28727;50.068;14.452;2023-02-01T01:40:28;99258.59;;;4.55;69.69
43115;BME280;28727;50.068;14.452;2023-02-01T01:43:00;99262.47;;;4.51;70.14
43115;BME280;28727;50.068;14.452;2023-02-01T01:45:33;99246.88;;;4.49;70.15
43115;BME280;28727;50.068;14.452;2023-02-01T01:48:08;99254.63;;;4.51;69.64
43115;BME280;28727;50.068;14.452;2023-02-01T01:51:10;99253.25;;;4.57;69.13
43115;BME280;28727;50.068;14.452;2023-02-01T01:53:49;99248.56;;;4.60;68.86
43115;BME280;28727;50.068;14.452;2023-02-01T01:56:22;99244.31;;;4.59;68.44
43115;BME280;28727;50.068;14.452;2023-02-01T01:58:55;99243.78;;;4.65;68.29
43115;BME280;28727;50.068;14.452;2023-02-01T02:01:27;99242.56;;;4.69;67.48
43115;BME280;28727;50.068;14.452;2023-02-01T02:04:00;99244.63;;;4.75;66.57
43115;BME280;28727;50.068;14.452;2023-02-01T02:06:47;99236.13;;;4.83;65.55
43115;BME280;28727;50.068;14.452;2023-02-01T02:09:21;99237.75;;;4.84;64.64
43115;BME280;28727;50.068;14.452;2023-02-01T02:11:53;99235.81;;;4.86;64.44
43115;BME280;28727;50.068;14.452;2023-02-01T02:14:25;99232.38;;;4.85;64.22
43115;BME280;28727;50.068;14.452;2023-02-01T02:20:35;99231.84;;;4.82;62.85
43115;BME280;28727;50.068;14.452;2023-02-01T02:34:52;99280.72;;;4.91;61.51
43115;BME280;28727;50.068;14.452;2023-02-01T02:43:22;99281.44;;;5.03;61.00
43115;BME280;28727;50.068;14.452;2023-02-01T02:46:40;99271.56;;;5.06;60.85
43115;BME280;28727;50.068;14.452;2023-02-01T02:49:41;99276.50;;;5.09;60.85
43115;BME280;28727;50.068;14.452;2023-02-01T02:52:47;99278.03;;;5.12;61.08
43115;BME280;28727;50.068;14.452;2023-02-01T02:55:58;99268.09;;;5.06;61.52
43115;BME280;28727;50.068;14.452;2023-02-01T02:58:50;99269.31;;;5.02;62.51
43115;BME280;28727;50.068;14.452;2023-02-01T03:01:43;99256.50;;;4.99;63.29
43115;BME280;28727;50.068;14.452;2023-02-01T03:04:34;99251.13;;;4.90;63.66
43115;BME280;28727;50.068;14.452;2023-02-01T03:13:46;99243.13;;;4.82;64.59
43115;BME280;28727;50.068;14.452;2023-02-01T03:16:57;99235.13;;;4.84;65.17
43115;BME280;28727;50.068;14.452;2023-02-01T03:19:37;99231.13;;;4.80;65.00
43115;BME280;28727;50.068;14.452;2023-02-01T03:22:17;99227.81;;;4.78;65.32
43115;BME280;28727;50.068;14.452;2023-02-01T03:24:56;99234.16;;;4.75;65.27
43115;BME280;28727;50.068;14.452;2023-02-01T03:27:40;99217.06;;;4.71;65.58
43115;BME280;28727;50.068;14.452;2023-02-01T03:30:22;99227.41;;;4.73;65.29
43115;BME280;28727;50.068;14.452;2023-02-01T03:32:58;99216.09;;;4.72;65.32
43115;BME280;28727;50.068;14.452;2023-02-01T03:35:44;99206.88;;;4.68;65.78
43115;BME280;28727;50.068;14.452;2023-02-01T03:41:37;99204.38;;;4.67;65.25
43115;BME280;28727;50.068;14.452;2023-02-01T03:47:16;99203.56;;;4.57;65.87
43115;BME280;28727;50.068;14.452;2023-02-01T03:50:10;99192.81;;;4.60;65.60
43115;BME280;28727;50.068;14.452;2023-02-01T03:52:47;99197.63;;;4.54;66.20
43115;BME280;28727;50.068;14.452;2023-02-01T03:55:22;99196.78;;;4.54;65.90
43115;BME280;28727;50.068;14.452;2023-02-01T03:58:06;99200.09;;;4.56;65.97
43115;BME280;28727;50.068;14.452;2023-02-01T04:00:44;99195.28;;;4.51;66.01
43115;BME280;28727;50.068;14.452;2023-02-01T04:03:16;99206.81;;;4.49;66.48
43115;BME280;28727;50.068;14.452;2023-02-01T04:05:50;99216.75;;;4.45;66.61
43115;BME280;28727;50.068;14.452;2023-02-01T04:08:23;99220.59;;;4.41;66.31
43115;BME280;28727;50.068;14.452;2023-02-01T04:10:55;99225.25;;;4.38;66.28
43115;BME280;28727;50.068;14.452;2023-02-01T04:13:27;99228.97;;;4.35;66.71
43115;BME280;28727;50.068;14.452;2023-02-01T04:16:01;99229.91;;;4.34;66.42
43115;BME280;28727;50.068;14.452;2023-02-01T04:18:33;99234.19;;;4.35;66.39
43115;BME280;28727;50.068;14.452;2023-02-01T04:21:06;99224.69;;;4.34;67.00
43115;BME280;28727;50.068;14.452;2023-02-01T04:23:38;99227.44;;;4.33;66.93
43115;BME280;28727;50.068;14.452;2023-02-01T04:26:09;99216.97;;;4.33;67.18
43115;BME280;28727;50.068;14.452;2023-02-01T04:28:42;99223.03;;;4.33;66.57
43115;BME280;28727;50.068;14.452;2023-02-01T04:31:15;99220.28;;;4.35;67.12
43115;BME280;28727;50.068;14.452;2023-02-01T04:33:48;99226.34;;;4.35;66.46
43115;BME280;28727;50.068;14.452;2023-02-01T04:36:21;99212.56;;;4.33;66.76
43115;BME280;28727;50.068;14.452;2023-02-01T04:38:55;99212.88;;;4.40;66.92
43115;BME280;28727;50.068;14.452;2023-02-01T04:41:27;99205.97;;;4.39;66.86
43115;BME280;28727;50.068;14.452;2023-02-01T04:44:00;99192.22;;;4.37;67.11
43115;BME280;28727;50.068;14.452;2023-02-01T04:46:32;99189.47;;;4.38;66.93
43115;BME280;28727;50.068;14.452;2023-02-01T04:49:04;99178.19;;;4.38;66.87
43115;BME280;28727;50.068;14.452;2023-02-01T04:51:36;99174.72;;;4.37;67.38
43115;BME280;28727;50.068;14.452;2023-02-01T04:54:08;99169.25;;;4.40;67.08
43115;BME280;28727;50.068;14.452;2023-02-01T04:56:40;99174.06;;;4.35;67.61
43115;BME280;28727;50.068;14.452;2023-02-01T04:59:12;99165.81;;;4.40;66.74
43115;BME280;28727;50.068;14.452;2023-02-01T05:01:43;99155.75;;;4.35;67.48
43115;BME280;28727;50.068;14.452;2023-02-01T05:04:19;99144.84;;;4.30;67.23
43115;BME280;28727;50.068;14.452;2023-02-01T05:06:53;99149.00;;;4.33;67.72
43115;BME280;28727;50.068;14.452;2023-02-01T05:09:25;99150.53;;;4.35;67.15
43115;BME280;28727;50.068;14.452;2023-02-01T05:11:57;99146.13;;;4.36;67.45
43115;BME280;28727;50.068;14.452;2023-02-01T05:14:47;99150.53;;;4.35;66.96
43115;BME280;28727;50.068;14.452;2023-02-01T05:17:20;99166.75;;;4.29;67.93
43115;BME280;28727;50.068;14.452;2023-02-01T05:19:51;99159.03;;;4.28;67.78
43115;BME280;28727;50.068;14.452;2023-02-01T05:22:23;99159.75;;;4.30;67.75
43115;BME280;28727;50.068;14.452;2023-02-01T05:24:55;99158.91;;;4.29;67.54
43115;BME280;28727;50.068;14.452;2023-02-01T05:27:29;99151.19;;;4.28;67.69
43115;BME280;28727;50.068;14.452;2023-02-01T05:30:03;99152.28;;;4.25;68.22
43115;BME280;28727;50.068;14.452;2023-02-01T05:32:37;99164.50;;;4.25;68.38
43115;BME280;28727;50.068;14.452;2023-02-01T05:35:11;99166.56;;;4.21;68.16
43115;BME280;28727;50.068;14.452;2023-02-01T05:37:48;99163.56;;;4.26;68.46
43115;BME280;28727;50.068;14.452;2023-02-01T05:40:20;99163.84;;;4.23;68.27
43115;BME280;28727;50.068;14.452;2023-02-01T05:42:52;99166.69;;;4.20;67.99
43115;BME280;28727;50.068;14.452;2023-02-01T05:45:24;99163.69;;;4.24;68.89
43115;BME280;28727;50.068;14.452;2023-02-01T05:47:55;99153.81;;;4.28;68.39
43115;BME280;28727;50.068;14.452;2023-02-01T05:50:27;99139.78;;;4.29;68.32
43115;BME280;28727;50.068;14.452;2023-02-01T05:53:01;99140.72;;;4.28;68.84
43115;BME280;28727;50.068;14.452;2023-02-01T05:55:32;99143.34;;;4.28;68.59
43115;BME280;28727;50.068;14.452;2023-02-01T05:58:05;99141.69;;;4.27;68.63
43115;BME280;28727;50.068;14.452;2023-02-01T06:00:37;99142.50;;;4.27;68.72
43115;BME280;28727;50.068;14.452;2023-02-01T06:03:11;99139.78;;;4.29;68.74
43115;BME280;28727;50.068;14.452;2023-02-01T06:05:44;99140.59;;;4.29;68.75
43115;BME280;28727;50.068;14.452;2023-02-01T06:08:16;99135.38;;;4.29;68.95
43115;BME280;28727;50.068;14.452;2023-02-01T06:10:48;99128.91;;;4.24;69.12
43115;BME280;28727;50.068;14.452;2023-02-01T06:13:20;99133.41;;;4.22;69.01
43115;BME280;28727;50.068;14.452;2023-02-01T06:15:52;99134.38;;;4.21;69.63
43115;BME280;28727;50.068;14.452;2023-02-01T06:18:24;99134.25;;;4.22;69.03
43115;BME280;28727;50.068;14.452;2023-02-01T06:20:58;99129.84;;;4.23;69.42
43115;BME280;28727;50.068;14.452;2023-02-01T06:23:32;99115.53;;;4.27;69.30
43115;BME280;28727;50.068;14.452;2023-02-01T06:26:05;99121.19;;;4.22;69.53
43115;BME280;28727;50.068;14.452;2023-02-01T06:28:39;99112.63;;;4.20;69.16
43115;BME280;28727;50.068;14.452;2023-02-01T06:31:11;99123.66;;;4.24;69.37
43115;BME280;28727;50.068;14.452;2023-02-01T06:33:43;99121.72;;;4.26;69.14
43115;BME280;28727;50.068;14.452;2023-02-01T06:36:15;99118.28;;;4.25;68.90
43115;BME280;28727;50.068;14.452;2023-02-01T06:38:51;99118.16;;;4.27;68.85
43115;BME280;28727;50.068;14.452;2023-02-01T06:41:26;99117.19;;;4.28;69.10
43115;BME280;28727;50.068;14.452;2023-02-01T06:44:00;99117.06;;;4.29;69.76
43115;BME280;28727;50.068;14.452;2023-02-01T06:46:32;99106.63;;;4.29;69.33
43115;BME280;28727;50.068;14.452;2023-02-01T06:49:04;99108.81;;;4.34;69.29
43115;BME280;28727;50.068;14.452;2023-02-01T06:51:36;99107.88;;;4.35;69.52
43115;BME280;28727;50.068;14.452;2023-02-01T06:54:07;99091.22;;;4.36;70.10
43115;BME280;28727;50.068;14.452;2023-02-01T06:56:39;99092.72;;;4.38;69.70
43115;BME280;28727;50.068;14.452;2023-02-01T06:59:11;99095.06;;;4.41;69.32
43115;BME280;28727;50.068;14.452;2023-02-01T07:01:47;99104.72;;;4.41;69.74
43115;BME280;28727;50.068;14.452;2023-02-01T07:04:19;99098.22;;;4.35;69.83
43115;BME280;28727;50.068;14.452;2023-02-01T07:06:51;99104.97;;;4.38;69.61
43115;BME280;28727;50.068;14.452;2023-02-01T07:09:27;99113.22;;;4.33;70.08
43115;BME280;28727;50.068;14.452;2023-02-01T07:12:02;99105.25;;;4.35;70.22
43115;BME280;28727;50.068;14.452;2023-02-01T07:14:33;99108.69;;;4.35;69.66
43115;BME280;28727;50.068;14.452;2023-02-01T07:17:06;99103.59;;;4.34;69.89
43115;BME280;28727;50.068;14.452;2023-02-01T07:19:37;99106.63;;;4.39;70.23
43115;BME280;28727;50.068;14.452;2023-02-01T07:22:09;99102.75;;;4.43;69.79
43115;BME280;28727;50.068;14.452;2023-02-01T07:24:41;99100.16;;;4.43;70.22
43115;BME280;28727;50.068;14.452;2023-02-01T07:27:13;99096.03;;;4.50;69.71
43115;BME280;28727;50.068;14.452;2023-02-01T07:29:44;99093.41;;;4.50;69.83
43115;BME280;28727;50.068;14.452;2023-02-01T07:32:16;99086.53;;;4.49;69.93
43115;BME280;28727;50.068;14.452;2023-02-01T07:34:49;99093.53;;;4.48;70.07
43115;BME280;28727;50.068;14.452;2023-02-01T07:37:21;99095.34;;;4.48;70.21
43115;BME280;28727;50.068;14.452;2023-02-01T07:39:53;99100.84;;;4.45;70.22
43115;BME280;28727;50.068;14.452;2023-02-01T07:42:24;99098.94;;;4.47;69.86
43115;BME280;28727;50.068;14.452;2023-02-01T07:44:57;99089.84;;;4.51;70.30
43115;BME280;28727;50.068;14.452;2023-02-01T07:47:45;99087.63;;;4.56;69.66
43115;BME280;28727;50.068;14.452;2023-02-01T07:50:17;99081.03;;;4.62;69.55
43115;BME280;28727;50.068;14.452;2023-02-01T07:52:49;99080.91;;;4.63;69.67
43115;BME280;28727;50.068;14.452;2023-02-01T07:55:21;99082.13;;;4.69;69.46
43115;BME280;28727;50.068;14.452;2023-02-01T07:57:56;99079.50;;;4.78;69.40
43115;BME280;28727;50.068;14.452;2023-02-01T08:00:28;99088.34;;;4.68;69.37
43115;BME280;28727;50.068;14.452;2023-02-01T08:03:18;99076.78;;;4.70;69.50
43115;BME280;28727;50.068;14.452;2023-02-01T08:05:56;99073.03;;;4.73;69.56
43115;BME280;28727;50.068;14.452;2023-02-01T08:08:28;99080.63;;;4.76;69.44
43115;BME280;28727;50.068;14.452;2023-02-01T08:11:02;99083.38;;;4.74;69.71
43115;BME280;28727;50.068;14.452;2023-02-01T08:13:34;99084.91;;;4.77;69.19
43115;BME280;28727;50.068;14.452;2023-02-01T08:16:08;99076.75;;;4.80;69.61
43115;BME280;28727;50.068;14.452;2023-02-01T08:18:41;99085.56;;;4.79;69.50
43115;BME280;28727;50.068;14.452;2023-02-01T08:21:18;99080.75;;;4.84;69.76
43115;BME280;28727;50.068;14.452;2023-02-01T08:23:51;99078.81;;;4.95;69.07
43115;BME280;28727;50.068;14.452;2023-02-01T08:26:26;99079.63;;;4.96;69.28
43115;BME280;28727;50.068;14.452;2023-02-01T08:29:00;99072.03;;;5.03;68.72
43115;BME280;28727;50.068;14.452;2023-02-01T08:31:33;99066.38;;;5.07;68.37
43115;BME280;28727;50.068;14.452;2023-02-01T08:34:05;99062.69;;;5.00;68.42
43115;BME280;28727;50.068;14.452;2023-02-01T08:36:36;99052.22;;;5.00;68.61
43115;BME280;28727;50.068;14.452;2023-02-01T08:39:16;99056.91;;;5.06;68.63
43115;BME280;28727;50.068;14.452;2023-02-01T08:41:48;99051.81;;;5.05;68.57
43115;BME280;28727;50.068;14.452;2023-02-01T08:44:41;99054.00;;;5.09;68.33
43115;BME280;28727;50.068;14.452;2023-02-01T08:47:14;99065.72;;;5.05;68.46
43115;BME280;28727;50.068;14.452;2023-02-01T08:49:45;99068.16;;;5.07;68.43
43115;BME280;28727;50.068;14.452;2023-02-01T08:52:17;99065.28;;;5.10;68.92
43115;BME280;28727;50.068;14.452;2023-02-01T08:54:49;99055.91;;;5.17;68.38
43115;BME280;28727;50.068;14.452;2023-02-01T08:57:21;99053.56;;;5.14;68.30
43115;BME280;28727;50.068;14.452;2023-02-01T08:59:56;99053.56;;;5.14;68.33
43115;BME280;28727;50.068;14.452;2023-02-01T09:02:27;99044.03;;;5.13;68.39
43115;BME280;28727;50.068;14.452;2023-02-01T09:04:59;99047.50;;;5.13;68.12
43115;BME280;28727;50.068;14.452;2023-02-01T09:07:34;99062.53;;;5.11;68.31
43115;BME280;28727;50.068;14.452;2023-02-01T09:10:06;99047.50;;;5.13;67.93
43115;BME280;28727;50.068;14.452;2023-02-01T09:12:41;99041.16;;;5.16;68.06
43115;BME280;28727;50.068;14.452;2023-02-01T09:15:12;99048.97;;;5.25;67.44
43115;BME280;28727;50.068;14.452;2023-02-01T09:17:44;99043.59;;;5.27;67.49
43115;BME280;28727;50.068;14.452;2023-02-01T09:20:17;99044.97;;;5.31;67.31
43115;BME280;28727;50.068;14.452;2023-02-01T09:22:54;99047.69;;;5.39;66.64
43115;BME280;28727;50.068;14.452;2023-02-01T09:25:26;99048.53;;;5.40;65.96
43115;BME280;28727;50.068;14.452;2023-02-01T09:27:58;99040.94;;;5.46;65.74
43115;BME280;28727;50.068;14.452;2023-02-01T09:30:30;99049.88;;;5.53;66.04
43115;BME280;28727;50.068;14.452;2023-02-01T09:33:03;99039.59;;;5.60;65.67
43115;BME280;28727;50.068;14.452;2023-02-01T09:35:34;99029.69;;;5.63;65.46
43115;BME280;28727;50.068;14.452;2023-02-01T09:38:06;99040.41;;;5.70;65.08
43115;BME280;28727;50.068;14.452;2023-02-01T09:40:41;99034.19;;;5.71;64.66
43115;BME280;28727;50.068;14.452;2023-02-01T09:46:27;99028.13;;;5.70;64.79
43115;BME280;28727;50.068;14.452;2023-02-01T09:49:12;99028.78;;;5.72;64.63
43115;BME280;28727;50.068;14.452;2023-02-01T09:51:48;99030.16;;;5.76;64.27
43115;BME280;28727;50.068;14.452;2023-02-01T09:54:26;99024.94;;;5.76;64.28
43115;BME280;28727;50.068;14.452;2023-02-01T09:57:11;99026.56;;;5.77;64.42
43115;BME280;28727;50.068;14.452;2023-02-01T10:00:00;99021.03;;;5.81;64.01
43115;BME280;28727;50.068;14.452;2023-02-01T10:02:42;99017.59;;;5.80;63.80
43115;BME280;28727;50.068;14.452;2023-02-01T10:05:18;99027.25;;;5.80;63.40
43115;BME280;28727;50.068;14.452;2023-02-01T10:08:03;99016.31;;;5.84;63.43
43115;BME280;28727;50.068;14.452;2023-02-01T10:13:59;99031.22;;;5.84;62.87
43115;BME280;28727;50.068;14.452;2023-02-01T10:16:50;99031.38;;;5.82;63.22
43115;BME280;28727;50.068;14.452;2023-02-01T10:22:46;99038.25;;;5.93;63.05
43115;BME280;28727;50.068;14.452;2023-02-01T10:26:02;99036.44;;;5.93;62.79
43115;BME280;28727;50.068;14.452;2023-02-01T10:28:37;99035.63;;;5.93;63.04
43115;BME280;28727;50.068;14.452;2023-02-01T10:31:10;99040.03;;;5.92;63.01
43115;BME280;28727;50.068;14.452;2023-02-01T10:33:45;99034.41;;;5.87;62.82
43115;BME280;28727;50.068;14.452;2023-02-01T10:36:42;99011.06;;;5.84;63.64
43115;BME280;28727;50.068;14.452;2023-02-01T10:39:20;99022.44;;;5.75;63.45
43115;BME280;28727;50.068;14.452;2023-02-01T10:41:54;99026.19;;;5.72;64.08
43115;BME280;28727;50.068;14.452;2023-02-01T10:44:30;99013.25;;;5.71;64.31
43115;BME280;28727;50.068;14.452;2023-02-01T10:47:02;99019.00;;;5.74;64.30
43115;BME280;28727;50.068;14.452;2023-02-01T10:50:34;99004.94;;;5.75;64.40
43115;BME280;28727;50.068;14.452;2023-02-01T10:52:44;99004.56;;;5.70;63.46
43115;BME280;28727;50.068;14.452;2023-02-01T10:55:37;99018.19;;;5.74;63.47
43115;BME280;28727;50.068;14.452;2023-02-01T10:58:30;99015.16;;;5.69;63.08
43115;BME280;28727;50.068;14.452;2023-02-01T11:01:17;99027.00;;;5.73;62.82
43115;BME280;28727;50.068;14.452;2023-02-01T11:03:55;99005.53;;;5.69;63.22
43115;BME280;28727;50.068;14.452;2023-02-01T11:17:02;99007.84;;;6.00;61.54
43115;BME280;28727;50.068;14.452;2023-02-01T11:20:00;99000.50;;;6.03;61.09
43115;BME280;28727;50.068;14.452;2023-02-01T11:22:32;99001.56;;;6.10;61.18
43115;BME280;28727;50.068;14.452;2023-02-01T11:25:09;98993.75;;;6.18;60.87
43115;BME280;28727;50.068;14.452;2023-02-01T11:27:43;98993.84;;;6.27;59.86
43115;BME280;28727;50.068;14.452;2023-02-01T11:30:36;98995.50;;;6.45;63.54
43115;BME280;28727;50.068;14.452;2023-02-01T11:33:15;98998.06;;;6.81;60.98
43115;BME280;28727;50.068;14.452;2023-02-01T11:35:48;99003.97;;;7.09;61.21
43115;BME280;28727;50.068;14.452;2023-02-01T11:38:29;98990.69;;;7.36;59.92
43115;BME280;28727;50.068;14.452;2023-02-01T11:41:24;98986.94;;;7.97;64.35
43115;BME280;28727;50.068;14.452;2023-02-01T11:43:58;98995.59;;;8.47;62.91
43115;BME280;28727;50.068;14.452;2023-02-01T11:46:33;98986.38;;;8.76;61.21
43115;BME280;28727;50.068;14.452;2023-02-01T11:49:22;98983.88;;;9.07;60.69
43115;BME280;28727;50.068;14.452;2023-02-01T11:52:11;98993.69;;;9.21;59.36
43115;BME280;28727;50.068;14.452;2023-02-01T12:05:52;98984.69;;;9.54;55.25
43115;BME280;28727;50.068;14.452;2023-02-01T12:08:52;98992.72;;;9.61;52.17
43115;BME280;28727;50.068;14.452;2023-02-01T12:11:43;98992.22;;;9.65;54.61
43115;BME280;28727;50.068;14.452;2023-02-01T12:14:40;99006.03;;;9.67;53.05
43115;BME280;28727;50.068;14.452;2023-02-01T12:26:08;99000.97;;;9.97;51.81
43115;BME280;28727;50.068;14.452;2023-02-01T12:28:48;99003.97;;;9.94;51.85
43115;BME280;28727;50.068;14.452;2023-02-01T12:31:49;98983.53;;;9.88;51.69
43115;BME280;28727;50.068;14.452;2023-02-01T12:34:41;99011.00;;;9.70;52.63
43115;BME280;28727;50.068;14.452;2023-02-01T12:37:33;99006.03;;;9.67;50.66
43115;BME280;28727;50.068;14.452;2023-02-01T12:40:39;99000.31;;;9.64;52.33
43115;BME280;28727;50.068;14.452;2023-02-01T12:43:14;99001.22;;;9.32;50.62
43115;BME280;28727;50.068;14.452;2023-02-01T12:46:04;99000.03;;;8.55;52.46
43115;BME280;28727;50.068;14.452;2023-02-01T12:48:55;99000.59;;;8.08;53.56
43115;BME280;28727;50.068;14.452;2023-02-01T12:51:34;99001.16;;;7.78;54.86
43115;BME280;28727;50.068;14.452;2023-02-01T12:57:27;99028.38;;;7.27;55.53
43115;BME280;28727;50.068;14.452;2023-02-01T13:00:22;99016.63;;;7.13;56.19
43115;BME280;28727;50.068;14.452;2023-02-01T13:06:07;98998.00;;;7.58;55.81
43115;BME280;28727;50.068;14.452;2023-02-01T13:08:43;98996.22;;;7.67;55.90
43115;BME280;28727;50.068;14.452;2023-02-01T13:11:26;98989.41;;;7.98;54.28
43115;BME280;28727;50.068;14.452;2023-02-01T13:17:00;98980.28;;;8.43;52.52
43115;BME280;28727;50.068;14.452;2023-02-01T13:22:31;98984.22;;;8.31;51.11
43115;BME280;28727;50.068;14.452;2023-02-01T13:25:04;98987.97;;;8.28;51.55
43115;BME280;28727;50.068;14.452;2023-02-01T13:27:43;98992.56;;;8.18;50.90
43115;BME280;28727;50.068;14.452;2023-02-01T13:30:21;98986.66;;;8.16;51.31
43115;BME280;28727;50.068;14.452;2023-02-01T13:36:33;98979.56;;;8.00;50.42
43115;BME280;28727;50.068;14.452;2023-02-01T13:39:23;98988.88;;;7.87;50.42
43115;BME280;28727;50.068;14.452;2023-02-01T13:42:02;98983.59;;;7.78;50.79
43115;BME280;28727;50.068;14.452;2023-02-01T13:44:46;98975.25;;;7.91;50.70
43115;BME280;28727;50.068;14.452;2023-02-01T13:47:32;98988.53;;;7.81;50.22
43115;BME280;28727;50.068;14.452;2023-02-01T13:53:14;98986.50;;;7.59;50.90
43115;BME280;28727;50.068;14.452;2023-02-01T13:56:00;98987.34;;;7.60;50.06
43115;BME280;28727;50.068;14.452;2023-02-01T13:58:41;98987.97;;;7.54;50.17
43115;BME280;28727;50.068;14.452;2023-02-01T14:03:58;98980.97;;;7.36;51.30
43115;BME280;28727;50.068;14.452;2023-02-01T14:11:48;99002.44;;;7.24;52.11
43115;BME280;28727;50.068;14.452;2023-02-01T14:19:26;99002.03;;;7.11;53.56
43115;BME280;28727;50.068;14.452;2023-02-01T14:22:31;98986.63;;;7.16;53.60
43115;BME280;28727;50.068;14.452;2023-02-01T14:24:54;99004.53;;;7.20;53.58
43115;BME280;28727;50.068;14.452;2023-02-01T14:27:29;98999.28;;;7.20;53.64
43115;BME280;28727;50.068;14.452;2023-02-01T14:30:11;98987.75;;;7.13;53.00
43115;BME280;28727;50.068;14.452;2023-02-01T14:32:46;98989.72;;;7.11;53.96
43115;BME280;28727;50.068;14.452;2023-02-01T14:35:20;98986.41;;;7.09;53.41
43115;BME280;28727;50.068;14.452;2023-02-01T14:38:00;98989.19;;;7.08;53.69
43115;BME280;28727;50.068;14.452;2023-02-01T14:40:34;98986.91;;;7.05;53.51
43115;BME280;28727;50.068;14.452;2023-02-01T14:43:07;98984.13;;;7.06;53.39
43115;BME280;28727;50.068;14.452;2023-02-01T14:45:59;98986.56;;;7.08;53.81
43115;BME280;28727;50.068;14.452;2023-02-01T14:51:03;98987.25;;;7.10;54.18
43115;BME280;28727;50.068;14.452;2023-02-01T14:53:39;98993.19;;;7.12;53.62
43115;BME280;28727;50.068;14.452;2023-02-01T14:56:16;98985.91;;;7.06;53.93
43115;BME280;28727;50.068;14.452;2023-02-01T14:59:07;98986.38;;;7.01;54.06
43115;BME280;28727;50.068;14.452;2023-02-01T15:01:50;98990.97;;;6.99;54.23
43115;BME280;28727;50.068;14.452;2023-02-01T15:04:26;98990.91;;;6.91;53.84
43115;BME280;28727;50.068;14.452;2023-02-01T15:07:05;98990.25;;;6.89;54.37
43115;BME280;28727;50.068;14.452;2023-02-01T15:09:46;98988.59;;;6.88;54.52
43115;BME280;28727;50.068;14.452;2023-02-01T15:12:24;98997.75;;;6.84;54.62
43115;BME280;28727;50.068;14.452;2023-02-01T15:17:56;98993.41;;;6.75;54.62
43115;BME280;28727;50.068;14.452;2023-02-01T15:20:31;98994.41;;;6.74;54.86
43115;BME280;28727;50.068;14.452;2023-02-01T15:23:29;98983.22;;;6.72;54.77
43115;BME280;28727;50.068;14.452;2023-02-01T15:26:01;98991.56;;;6.67;54.71
43115;BME280;28727;50.068;14.452;2023-02-01T15:28:33;98973.97;;;6.60;54.35
43115;BME280;28727;50.068;14.452;2023-02-01T15:31:05;98977.19;;;6.53;54.96
43115;BME280;28727;50.068;14.452;2023-02-01T15:33:37;98980.25;;;6.49;55.21
43115;BME280;28727;50.068;14.452;2023-02-01T15:36:17;98981.69;;;6.43;55.29
43115;BME280;28727;50.068;14.452;2023-02-01T15:41:47;98984.78;;;6.39;55.48
43115;BME280;28727;50.068;14.452;2023-02-01T15:44:43;98983.59;;;6.33;55.80
43115;BME280;28727;50.068;14.452;2023-02-01T15:47:18;98989.16;;;6.30;55.92